Terminal Aerodrome Forecast
Issued by NWS Cleveland, OH

Home | Current Version | Previous Version | Text Only | Print | Product List | Glossary On
Versions: 1 2 3 4 5 6 7 8 9 10 11 12
500
FTUS41 KCLE 232330
TAFTOL
TAF
KTOL 232330Z 2400/2424 17012KT 6SM -SHRA SCT030 OVC060
      TEMPO 2402/2404 5SM -SHRA BKN025
     FM240400 14006KT 4SM -SHRA OVC025
     FM241200 09008KT P6SM VCSH OVC012
     FM241800 09008KT 2SM BR OVC008=

USA.gov is the U.S. government's official web portal to all federal, state and local government web resources and services.